createdAt,value
2018-02-15T00:01:34.481Z,4.20
2018-02-15T00:04:02.973Z,4.30
2018-02-15T00:06:31.473Z,4.37
2018-02-15T00:08:59.949Z,4.33
2018-02-15T00:11:28.457Z,4.31
2018-02-15T00:13:56.950Z,4.21
2018-02-15T00:16:25.393Z,4.16
2018-02-15T00:18:53.929Z,4.14
2018-02-15T00:21:22.408Z,4.17
2018-02-15T00:23:50.894Z,4.16
2018-02-15T00:26:19.382Z,4.11
2018-02-15T00:28:47.900Z,4.16
2018-02-15T00:31:16.426Z,4.12
2018-02-15T00:33:44.921Z,4.10
2018-02-15T00:36:13.383Z,4.13
2018-02-15T00:38:41.912Z,4.08
2018-02-15T00:41:10.454Z,4.09
2018-02-15T00:43:38.952Z,4.15
2018-02-15T00:46:07.447Z,4.17
2018-02-15T00:48:35.881Z,4.32
2018-02-15T00:51:04.371Z,4.25
2018-02-15T00:53:32.826Z,4.25
2018-02-15T00:56:01.390Z,4.17
2018-02-15T00:58:29.885Z,4.26
2018-02-15T01:00:58.373Z,4.27
2018-02-15T01:03:26.821Z,4.30
2018-02-15T01:05:55.314Z,4.34
2018-02-15T01:08:23.806Z,4.35
2018-02-15T01:10:52.271Z,4.30
2018-02-15T01:13:20.789Z,4.37
2018-02-15T01:15:49.241Z,4.27
2018-02-15T01:18:17.730Z,4.24
2018-02-15T01:20:46.223Z,4.08
2018-02-15T01:23:14.730Z,4.16
2018-02-15T01:25:43.194Z,4.13
2018-02-15T01:28:11.655Z,4.18
2018-02-15T01:30:40.159Z,4.11
2018-02-15T01:33:08.638Z,4.08
2018-02-15T01:35:37.093Z,4.03
2018-02-15T01:38:05.589Z,3.96
2018-02-15T01:40:34.049Z,3.93
2018-02-15T01:43:02.571Z,3.89
2018-02-15T01:45:31.034Z,3.85
2018-02-15T01:47:59.508Z,3.92
2018-02-15T01:50:28.042Z,3.90
2018-02-15T01:52:57.197Z,3.83
2018-02-15T01:55:25.683Z,3.73
2018-02-15T01:57:54.174Z,3.70
2018-02-15T02:00:22.665Z,3.74
2018-02-15T02:02:51.202Z,3.69
2018-02-15T02:05:19.725Z,3.61
2018-02-15T02:07:48.173Z,3.59
2018-02-15T02:10:16.634Z,3.61
2018-02-15T02:12:45.124Z,3.63
2018-02-15T02:15:13.594Z,3.52
2018-02-15T02:17:42.126Z,3.63
2018-02-15T02:20:10.647Z,3.48
2018-02-15T02:22:39.247Z,3.59
2018-02-15T02:25:07.701Z,3.50
2018-02-15T02:27:36.158Z,3.59
2018-02-15T02:30:04.651Z,3.60
2018-02-15T02:32:33.149Z,3.56
2018-02-15T02:35:01.654Z,3.56
2018-02-15T02:37:30.102Z,3.58
2018-02-15T02:39:58.567Z,3.62
2018-02-15T02:42:27.063Z,3.59
2018-02-15T02:44:55.609Z,3.65
2018-02-15T02:47:24.106Z,3.59
2018-02-15T02:49:52.613Z,3.58
2018-02-15T02:52:21.104Z,3.62
2018-02-15T02:54:49.597Z,3.58
2018-02-15T02:57:18.090Z,3.65
2018-02-15T02:59:46.582Z,3.56
2018-02-15T03:02:15.148Z,3.57
2018-02-15T03:04:43.638Z,3.57
2018-02-15T03:07:12.098Z,3.55
2018-02-15T03:09:40.589Z,3.60
2018-02-15T03:12:09.049Z,3.70
2018-02-15T03:14:37.562Z,3.52
2018-02-15T03:17:06.040Z,3.61
2018-02-15T03:19:34.509Z,3.67
2018-02-15T03:22:03.009Z,3.56
2018-02-15T03:24:31.539Z,3.61
2018-02-15T03:26:59.990Z,3.50
2018-02-15T03:29:28.462Z,3.58
2018-02-15T03:31:56.959Z,3.53
2018-02-15T03:34:25.478Z,3.62
2018-02-15T03:36:53.947Z,3.50
2018-02-15T03:39:22.429Z,3.52
2018-02-15T03:41:50.922Z,3.51
2018-02-15T03:44:19.381Z,3.47
2018-02-15T03:46:47.859Z,3.50
2018-02-15T03:49:16.365Z,3.52
2018-02-15T03:51:44.865Z,3.51
2018-02-15T03:54:13.326Z,3.45
2018-02-15T03:56:41.825Z,3.49
2018-02-15T03:59:10.333Z,3.27
2018-02-15T04:01:38.829Z,3.41
2018-02-15T04:04:07.350Z,3.38
2018-02-15T04:06:35.845Z,3.40
2018-02-15T04:09:04.338Z,3.28
2018-02-15T04:11:32.873Z,3.23
2018-02-15T04:14:01.380Z,3.32
2018-02-15T04:16:29.889Z,3.25
2018-02-15T04:18:58.353Z,3.29
2018-02-15T04:21:26.845Z,3.32
2018-02-15T04:23:55.329Z,3.32
2018-02-15T04:26:23.819Z,3.29
2018-02-15T04:28:52.309Z,3.21
2018-02-15T04:31:20.774Z,3.18
2018-02-15T04:33:49.309Z,3.20
2018-02-15T04:36:17.769Z,3.29
2018-02-15T04:38:46.268Z,3.33
2018-02-15T04:41:14.717Z,3.23
2018-02-15T04:43:43.224Z,3.21
2018-02-15T04:46:11.679Z,3.14
2018-02-15T04:48:40.178Z,3.18
2018-02-15T04:51:08.682Z,3.10
2018-02-15T04:53:37.174Z,3.08
2018-02-15T04:56:05.643Z,3.18
2018-02-15T04:58:34.137Z,3.13
2018-02-15T05:01:02.596Z,3.00
2018-02-15T05:03:31.090Z,3.08
2018-02-15T05:05:59.558Z,3.12
2018-02-15T05:08:28.070Z,3.12
2018-02-15T05:10:56.542Z,3.11
2018-02-15T05:13:25.038Z,3.19
2018-02-15T05:15:53.543Z,3.20
2018-02-15T05:18:21.992Z,3.14
2018-02-15T05:20:50.493Z,3.09
2018-02-15T05:23:18.946Z,3.18
2018-02-15T05:25:47.437Z,3.24
2018-02-15T05:28:15.916Z,3.23
2018-02-15T05:30:44.399Z,3.22
2018-02-15T05:33:12.901Z,3.21
2018-02-15T05:35:41.405Z,3.37
2018-02-15T05:38:09.917Z,3.34
2018-02-15T05:40:38.393Z,3.31
2018-02-15T05:43:06.924Z,3.33
2018-02-15T05:45:35.421Z,3.42
2018-02-15T05:48:03.916Z,3.30
2018-02-15T05:50:32.416Z,3.49
2018-02-15T05:53:00.873Z,3.50
2018-02-15T05:55:29.385Z,3.55
2018-02-15T05:57:57.842Z,3.66
2018-02-15T06:00:26.365Z,3.78
2018-02-15T06:02:54.839Z,3.61
2018-02-15T06:05:23.354Z,3.92
2018-02-15T06:07:51.813Z,3.99
2018-02-15T06:10:20.281Z,4.06
2018-02-15T06:12:48.785Z,4.16
2018-02-15T06:15:17.296Z,4.25
2018-02-15T06:17:45.819Z,4.19
2018-02-15T06:20:14.458Z,4.41
2018-02-15T06:22:42.976Z,4.47
2018-02-15T06:25:11.463Z,4.51
2018-02-15T06:27:41.057Z,4.68
2018-02-15T06:30:09.557Z,4.77
2018-02-15T06:32:38.022Z,4.70
2018-02-15T06:35:06.533Z,4.82
2018-02-15T06:37:34.998Z,4.96
2018-02-15T06:40:03.492Z,5.08
2018-02-15T06:42:32.006Z,5.28
2018-02-15T06:45:00.474Z,5.43
2018-02-15T06:47:28.995Z,5.41
2018-02-15T06:49:57.453Z,5.45
2018-02-15T06:52:25.984Z,5.65
2018-02-15T06:54:54.458Z,5.83
2018-02-15T06:57:22.964Z,5.56
2018-02-15T06:59:51.469Z,5.98
2018-02-15T07:02:19.946Z,5.97
2018-02-15T07:04:48.490Z,6.09
2018-02-15T07:07:17.003Z,5.94
2018-02-15T07:09:45.501Z,6.21
2018-02-15T07:12:14.010Z,6.20
2018-02-15T07:14:42.473Z,6.08
2018-02-15T07:17:10.961Z,6.11
2018-02-15T07:19:39.469Z,6.19
2018-02-15T07:22:07.949Z,6.08
2018-02-15T07:24:36.447Z,6.22
2018-02-15T07:27:04.938Z,6.29
2018-02-15T07:29:33.413Z,6.22
2018-02-15T07:32:01.898Z,6.29
2018-02-15T07:34:30.385Z,6.32
2018-02-15T07:36:58.846Z,6.24
2018-02-15T07:39:27.412Z,6.21
2018-02-15T07:41:55.923Z,6.14
2018-02-15T07:44:24.406Z,6.41
2018-02-15T07:46:52.927Z,6.30
2018-02-15T07:49:21.409Z,6.16
2018-02-15T07:51:49.905Z,6.27
2018-02-15T07:54:18.434Z,6.17
2018-02-15T07:56:46.986Z,6.09
2018-02-15T07:59:15.465Z,6.33
2018-02-15T08:01:43.962Z,6.35
2018-02-15T08:04:12.465Z,6.48
2018-02-15T08:06:41.824Z,6.47
2018-02-15T08:09:10.321Z,6.42
2018-02-15T08:11:38.773Z,6.44
2018-02-15T08:14:07.282Z,6.27
2018-02-15T08:16:35.761Z,6.47
2018-02-15T08:19:04.219Z,6.40
2018-02-15T08:21:32.706Z,6.39
2018-02-15T08:24:01.204Z,6.39
2018-02-15T08:26:29.669Z,6.46
2018-02-15T08:28:58.174Z,6.72
2018-02-15T08:31:26.634Z,6.39
2018-02-15T08:33:55.098Z,6.63
2018-02-15T08:36:23.621Z,6.62
2018-02-15T08:38:52.078Z,6.66
2018-02-15T08:41:20.588Z,6.45
2018-02-15T08:43:49.089Z,6.62
2018-02-15T08:46:17.576Z,6.80
2018-02-15T08:48:46.037Z,6.85
2018-02-15T08:51:14.541Z,6.85
2018-02-15T08:53:43.000Z,6.86
2018-02-15T08:56:11.489Z,7.09
2018-02-15T08:58:39.963Z,7.16
2018-02-15T09:01:08.465Z,7.05
2018-02-15T09:03:36.997Z,7.26
2018-02-15T09:06:05.465Z,7.25
2018-02-15T09:08:34.046Z,7.14
2018-02-15T09:11:02.536Z,7.35
2018-02-15T09:13:31.038Z,7.42
2018-02-15T09:15:59.538Z,7.26
2018-02-15T09:18:28.023Z,7.32
2018-02-15T09:20:56.526Z,7.46
2018-02-15T09:23:24.996Z,7.53
2018-02-15T09:25:53.513Z,7.64
2018-02-15T09:28:21.969Z,7.65
2018-02-15T09:30:50.468Z,7.82
2018-02-15T09:33:18.945Z,8.02
2018-02-15T09:35:47.446Z,7.94
2018-02-15T09:38:15.905Z,8.02
2018-02-15T09:40:44.425Z,8.17
2018-02-15T09:43:12.889Z,7.96
2018-02-15T09:45:41.374Z,8.03
2018-02-15T09:48:09.860Z,8.12
2018-02-15T09:50:38.323Z,7.96
2018-02-15T09:53:06.825Z,8.25
2018-02-15T09:55:35.373Z,8.19
2018-02-15T09:58:03.913Z,8.34
2018-02-15T10:00:32.473Z,7.97
2018-02-15T10:03:00.930Z,8.17
2018-02-15T10:05:29.760Z,8.47
2018-02-15T10:07:58.220Z,8.69
2018-02-15T10:10:26.720Z,8.69
2018-02-15T10:12:55.217Z,8.78
2018-02-15T10:15:23.658Z,8.79
2018-02-15T10:17:52.154Z,8.97
2018-02-15T10:20:20.671Z,8.67
2018-02-15T10:22:49.235Z,8.70
2018-02-15T10:25:17.710Z,8.82
2018-02-15T10:27:46.249Z,9.04
2018-02-15T10:30:14.714Z,8.72
2018-02-15T10:32:43.262Z,8.95
2018-02-15T10:35:11.722Z,8.44
2018-02-15T10:37:40.253Z,8.87
2018-02-15T10:40:08.723Z,8.68
2018-02-15T10:42:37.194Z,8.97
2018-02-15T10:45:05.708Z,9.00
2018-02-15T10:47:34.185Z,8.99
2018-02-15T10:50:02.725Z,8.96
2018-02-15T10:52:31.230Z,9.22
2018-02-15T10:54:59.697Z,9.13
2018-02-15T10:57:28.214Z,9.42
2018-02-15T10:59:56.716Z,9.45
2018-02-15T11:02:25.215Z,9.25
2018-02-15T11:04:59.215Z,8.97
2018-02-15T11:07:27.726Z,9.07
2018-02-15T11:09:56.225Z,9.03
2018-02-15T11:12:24.734Z,9.02
2018-02-15T11:14:53.241Z,9.13
2018-02-15T11:17:21.750Z,9.18
2018-02-15T11:19:50.214Z,8.98
2018-02-15T11:22:18.718Z,9.20
2018-02-15T11:24:47.227Z,9.32
2018-02-15T11:27:15.738Z,9.34
2018-02-15T11:29:44.289Z,9.39
2018-02-15T11:32:12.807Z,9.38
2018-02-15T11:34:41.365Z,9.44
2018-02-15T11:37:09.838Z,8.80
2018-02-15T11:39:38.363Z,9.02
2018-02-15T11:42:06.830Z,9.17
2018-02-15T11:44:35.317Z,8.94
2018-02-15T11:47:03.779Z,9.13
2018-02-15T11:49:32.274Z,9.13
2018-02-15T11:52:00.714Z,9.27
2018-02-15T11:54:29.205Z,9.24
2018-02-15T11:56:57.658Z,9.19
2018-02-15T11:59:26.209Z,9.04
2018-02-15T12:01:54.712Z,9.06
2018-02-15T12:04:23.192Z,9.39
2018-02-15T12:06:51.728Z,9.30
2018-02-15T12:09:20.203Z,9.16
2018-02-15T12:11:48.739Z,9.41
2018-02-15T12:14:17.262Z,9.43
2018-02-15T12:16:45.735Z,9.20
2018-02-15T12:19:14.246Z,9.35
2018-02-15T12:21:42.765Z,9.50
2018-02-15T12:24:11.325Z,9.42
2018-02-15T12:26:39.826Z,9.20
2018-02-15T12:29:08.312Z,9.08
2018-02-15T12:31:36.813Z,9.32
2018-02-15T12:34:05.298Z,9.45
2018-02-15T12:36:33.801Z,9.21
2018-02-15T12:39:02.339Z,8.92
2018-02-15T12:41:30.849Z,9.29
2018-02-15T12:43:59.404Z,9.39
2018-02-15T12:46:27.875Z,9.50
2018-02-15T12:48:56.331Z,9.65
2018-02-15T12:51:24.853Z,9.72
2018-02-15T12:53:53.313Z,9.90
2018-02-15T12:56:21.815Z,9.88
2018-02-15T12:58:50.277Z,9.95
2018-02-15T13:01:18.753Z,10.02
2018-02-15T13:03:47.274Z,10.28
2018-02-15T13:06:15.865Z,10.11
2018-02-15T13:08:44.379Z,10.40
2018-02-15T13:11:12.853Z,10.22
2018-02-15T13:13:41.382Z,10.50
2018-02-15T13:16:21.462Z,10.36
2018-02-15T13:21:50.909Z,9.94
2018-02-15T13:24:19.456Z,10.33
2018-02-15T13:26:48.035Z,10.34
2018-02-15T13:29:16.717Z,10.12
2018-02-15T13:31:45.193Z,10.24
2018-02-15T13:34:13.793Z,10.30
2018-02-15T13:36:42.284Z,10.44
2018-02-15T13:39:10.849Z,10.51
2018-02-15T13:41:39.435Z,10.69
2018-02-15T13:44:08.040Z,10.68
2018-02-15T13:46:36.662Z,10.75
2018-02-15T13:49:05.174Z,10.74
2018-02-15T13:51:33.647Z,10.81
2018-02-15T13:54:02.174Z,10.81
2018-02-15T13:56:30.645Z,10.78
2018-02-15T13:58:59.260Z,10.66
2018-02-15T14:01:27.743Z,10.41
2018-02-15T14:03:56.240Z,10.40
2018-02-15T14:06:24.725Z,10.31
2018-02-15T14:08:53.230Z,10.33
2018-02-15T14:11:21.750Z,10.28
2018-02-15T14:13:50.258Z,10.32
2018-02-15T14:16:18.734Z,10.24
2018-02-15T14:18:47.258Z,10.08
2018-02-15T14:21:15.729Z,10.28
2018-02-15T14:23:44.195Z,9.98
2018-02-15T14:26:12.685Z,9.92
2018-02-15T14:28:41.178Z,10.14
2018-02-15T14:31:09.653Z,10.20
2018-02-15T14:33:38.157Z,9.97
2018-02-15T14:36:06.668Z,10.30
2018-02-15T14:38:35.186Z,10.02
2018-02-15T14:41:03.709Z,10.07
2018-02-15T14:43:32.171Z,9.60
2018-02-15T14:46:00.682Z,9.88
2018-02-15T14:48:29.216Z,9.89
2018-02-15T14:50:57.739Z,9.84
2018-02-15T14:53:26.250Z,9.90
2018-02-15T14:55:54.754Z,9.96
2018-02-15T14:58:23.261Z,9.96
2018-02-15T15:00:51.731Z,9.83
2018-02-15T15:03:20.229Z,9.83
2018-02-15T15:05:48.689Z,9.81
2018-02-15T15:08:17.198Z,9.75
2018-02-15T15:10:45.735Z,9.63
2018-02-15T15:13:14.206Z,9.57
2018-02-15T15:15:42.724Z,9.70
2018-02-15T15:18:11.210Z,9.56
2018-02-15T15:20:39.739Z,9.40
2018-02-15T15:23:08.218Z,9.44
2018-02-15T15:25:36.730Z,9.34
2018-02-15T15:28:05.192Z,9.30
2018-02-15T15:30:33.727Z,9.31
2018-02-15T15:33:02.208Z,9.14
2018-02-15T15:35:31.105Z,9.14
2018-02-15T15:37:59.606Z,9.03
2018-02-15T15:40:28.070Z,8.98
2018-02-15T15:42:56.570Z,8.84
2018-02-15T15:45:25.090Z,8.96
2018-02-15T15:47:53.598Z,8.91
2018-02-15T15:50:22.061Z,8.75
2018-02-15T15:52:50.561Z,8.84
2018-02-15T15:55:19.026Z,8.82
2018-02-15T15:57:47.563Z,8.78
2018-02-15T16:00:16.070Z,8.64
2018-02-15T16:02:44.547Z,8.63
2018-02-15T16:05:12.991Z,8.58
2018-02-15T16:07:41.493Z,8.50
2018-02-15T16:10:09.950Z,8.49
2018-02-15T16:12:38.421Z,8.42
2018-02-15T16:15:06.949Z,8.32
2018-02-15T16:17:35.422Z,8.32
2018-02-15T16:20:03.953Z,8.20
2018-02-15T16:22:32.440Z,8.27
2018-02-15T16:25:00.945Z,8.05
2018-02-15T16:27:29.456Z,8.10
2018-02-15T16:29:57.960Z,8.12
2018-02-15T16:32:26.473Z,8.16
2018-02-15T16:34:54.942Z,8.18
2018-02-15T16:37:23.442Z,8.12
2018-02-15T16:39:51.914Z,8.20
2018-02-15T16:42:20.430Z,8.28
2018-02-15T16:44:48.878Z,8.29
2018-02-15T16:47:17.348Z,8.33
2018-02-15T16:49:45.849Z,8.36
2018-02-15T16:52:14.323Z,8.39
2018-02-15T16:54:42.829Z,8.44
2018-02-15T16:57:11.318Z,8.42
2018-02-15T16:59:39.818Z,8.50
2018-02-15T17:02:08.316Z,8.48
2018-02-15T17:04:36.781Z,8.51
2018-02-15T17:07:05.299Z,8.52
2018-02-15T17:09:33.779Z,8.58
2018-02-15T17:12:02.288Z,8.60
2018-02-15T17:14:30.786Z,8.59
2018-02-15T17:16:59.256Z,8.47
2018-02-15T17:19:27.764Z,8.59
2018-02-15T17:21:56.265Z,8.48
2018-02-15T17:24:24.761Z,8.27
2018-02-15T17:26:53.270Z,8.23
2018-02-15T17:29:21.730Z,8.24
2018-02-15T17:31:50.252Z,8.12
2018-02-15T17:34:18.711Z,8.08
2018-02-15T17:36:47.169Z,8.03
2018-02-15T17:39:15.677Z,8.06
2018-02-15T17:41:44.192Z,8.11
2018-02-15T17:44:12.663Z,8.23
2018-02-15T17:46:41.158Z,8.27
2018-02-15T17:49:09.632Z,7.95
2018-02-15T17:51:38.148Z,8.07
2018-02-15T17:54:06.657Z,7.99
2018-02-15T17:56:35.170Z,7.91
2018-02-15T17:59:03.666Z,7.83
2018-02-15T18:01:32.205Z,7.82
2018-02-15T18:04:00.709Z,7.82
2018-02-15T18:06:29.214Z,7.81
2018-02-15T18:08:57.767Z,7.80
2018-02-15T18:11:26.267Z,7.86
2018-02-15T18:13:54.766Z,7.70
2018-02-15T18:16:23.272Z,7.71
2018-02-15T18:18:51.741Z,7.78
2018-02-15T18:21:20.235Z,7.76
2018-02-15T18:23:48.733Z,7.83
2018-02-15T18:26:17.257Z,7.80
2018-02-15T18:28:45.730Z,7.71
2018-02-15T18:31:14.229Z,7.73
2018-02-15T18:33:42.695Z,7.73
2018-02-15T18:36:11.197Z,7.67
2018-02-15T18:38:39.657Z,7.71
2018-02-15T18:41:08.176Z,7.77
2018-02-15T18:43:36.673Z,7.73
2018-02-15T18:46:05.173Z,7.67
2018-02-15T18:48:33.650Z,7.60
2018-02-15T18:51:02.173Z,7.69
2018-02-15T18:53:30.641Z,7.47
2018-02-15T18:55:59.149Z,7.58
2018-02-15T18:58:27.642Z,7.59
2018-02-15T19:00:56.101Z,7.47
2018-02-15T19:03:24.602Z,7.38
2018-02-15T19:05:53.075Z,7.58
2018-02-15T19:08:21.569Z,7.49
2018-02-15T19:10:50.069Z,7.39
2018-02-15T19:13:18.578Z,7.41
2018-02-15T19:15:47.077Z,7.35
2018-02-15T19:18:15.565Z,7.18
2018-02-15T19:20:44.082Z,7.18
2018-02-15T19:23:12.546Z,7.23
2018-02-15T19:25:41.046Z,7.27
2018-02-15T19:28:09.509Z,7.12
2018-02-15T19:30:38.006Z,7.26
2018-02-15T19:33:06.505Z,7.03
2018-02-15T19:35:35.020Z,7.01
2018-02-15T19:38:03.494Z,7.19
2018-02-15T19:40:31.994Z,7.10
2018-02-15T19:43:00.483Z,7.07
2018-02-15T19:45:28.986Z,7.19
2018-02-15T19:47:57.804Z,7.31
2018-02-15T19:50:26.310Z,7.18
2018-02-15T19:52:54.765Z,7.26
2018-02-15T19:55:23.283Z,7.39
2018-02-15T19:57:51.770Z,7.31
2018-02-15T20:00:20.250Z,7.34
2018-02-15T20:02:48.794Z,7.17
2018-02-15T20:05:17.286Z,7.14
2018-02-15T20:07:45.919Z,7.13
2018-02-15T20:10:14.293Z,6.98
2018-02-15T20:12:42.797Z,7.06
2018-02-15T20:15:11.258Z,6.86
2018-02-15T20:17:39.755Z,6.96
2018-02-15T20:20:13.827Z,7.07
2018-02-15T20:22:42.325Z,7.10
2018-02-15T20:25:10.789Z,7.28
2018-02-15T20:27:44.928Z,7.23
2018-02-15T20:30:13.395Z,6.89
2018-02-15T20:32:41.866Z,7.20
2018-02-15T20:35:10.369Z,7.18
2018-02-15T20:37:44.325Z,7.18
2018-02-15T20:40:18.332Z,7.24
2018-02-15T20:42:46.797Z,6.87
2018-02-15T20:45:15.301Z,6.98
2018-02-15T20:47:43.781Z,6.95
2018-02-15T20:50:17.677Z,6.97
2018-02-15T20:52:51.581Z,7.03
2018-02-15T20:55:25.649Z,6.76
2018-02-15T20:57:54.180Z,6.94
2018-02-15T21:00:22.677Z,6.91
2018-02-15T21:02:51.182Z,6.85
2018-02-15T21:05:19.699Z,6.92
2018-02-15T21:07:48.177Z,6.90
2018-02-15T21:10:16.638Z,6.76
2018-02-15T21:12:45.141Z,6.80
2018-02-15T21:15:13.688Z,6.88
2018-02-15T21:17:42.176Z,6.99
2018-02-15T21:20:10.669Z,6.85
2018-02-15T21:22:39.150Z,6.77
2018-02-15T21:25:07.650Z,6.83
2018-02-15T21:27:36.141Z,6.73
2018-02-15T21:30:04.646Z,6.76
2018-02-15T21:32:33.168Z,6.91
2018-02-15T21:35:01.669Z,6.96
2018-02-15T21:37:30.181Z,6.88
2018-02-15T21:39:58.672Z,6.78
2018-02-15T21:42:27.181Z,6.75
2018-02-15T21:44:55.653Z,6.90
2018-02-15T21:47:24.157Z,6.85
2018-02-15T21:49:52.662Z,6.99
2018-02-15T21:52:21.127Z,6.95
2018-02-15T21:54:49.642Z,6.98
2018-02-15T21:57:18.128Z,7.14
2018-02-15T21:59:46.643Z,7.16
2018-02-15T22:02:15.110Z,7.09
2018-02-15T22:04:43.635Z,7.19
2018-02-15T22:07:12.136Z,7.25
2018-02-15T22:09:40.596Z,7.17
2018-02-15T22:12:09.109Z,7.29
2018-02-15T22:14:37.574Z,7.29
2018-02-15T22:17:06.074Z,7.38
2018-02-15T22:19:34.574Z,7.42
2018-02-15T22:22:03.069Z,7.30
2018-02-15T22:24:31.541Z,7.40
2018-02-15T22:27:00.046Z,7.42
2018-02-15T22:29:28.537Z,7.46
2018-02-15T22:31:57.037Z,7.51
2018-02-15T22:34:25.505Z,7.37
2018-02-15T22:36:54.001Z,7.55
2018-02-15T22:39:22.477Z,7.56
2018-02-15T22:41:50.977Z,7.55
2018-02-15T22:44:19.478Z,7.56
2018-02-15T22:46:47.981Z,7.53
2018-02-15T22:49:16.445Z,7.47
2018-02-15T22:51:44.922Z,7.48
2018-02-15T22:54:13.421Z,7.50
2018-02-15T22:56:41.962Z,7.49
2018-02-15T22:59:10.449Z,7.33
2018-02-15T23:01:38.946Z,7.32
2018-02-15T23:04:07.405Z,7.04
2018-02-15T23:06:35.890Z,6.98
2018-02-15T23:09:04.454Z,6.89
2018-02-15T23:11:32.967Z,6.67
2018-02-15T23:14:01.438Z,6.68
2018-02-15T23:16:29.994Z,6.60
2018-02-15T23:18:58.470Z,6.44
2018-02-15T23:21:26.924Z,6.47
2018-02-15T23:23:55.422Z,6.54
2018-02-15T23:26:23.885Z,6.45
2018-02-15T23:28:52.414Z,6.45
2018-02-15T23:31:20.930Z,6.35
2018-02-15T23:33:49.421Z,6.37
2018-02-15T23:36:17.915Z,6.44
2018-02-15T23:38:46.424Z,6.27
2018-02-15T23:41:14.881Z,6.33
2018-02-15T23:43:43.383Z,6.13
2018-02-15T23:46:11.846Z,6.09
2018-02-15T23:48:40.381Z,5.96
2018-02-15T23:51:08.868Z,6.04
2018-02-15T23:53:37.378Z,6.17
2018-02-15T23:56:05.853Z,6.32
2018-02-15T23:58:34.366Z,6.50
